NCAR-RAP Real-Time Weather Data

Output produced by METARs form (20 January 2018  03:36 UTC)
found at http://weather.rap.ucar.edu/surface/
 
KINL 200255Z AUTO 29009KT 10SM CLR 02/M02 A2949 RMK AO2 SLP999 T00171022 53019
KINL 200232Z AUTO 28008KT 10SM SCT018 02/M02 A2947 RMK AO2 T00221022
KINL 200155Z AUTO 31017G23KT 10SM OVC019 03/M02 A2946 RMK AO2 PK WND 33027/0124 SLP989 T00281017
 
KELO 200315Z AUTO 27011G20KT 10SM OVC020 02/M01 A2949 RMK AO2
KELO 200255Z AUTO 26009KT 10SM OVC022 02/M01 A2948 RMK AO2
KELO 200236Z AUTO 25008KT 10SM OVC022 02/M01 A2947 RMK AO2
KELO 200215Z AUTO 24007KT 10SM OVC024 02/M01 A2946 RMK AO2
KELO 200155Z AUTO 24005KT 10SM BKN024 02/M02 A2944 RMK AO2
 
 
KHIB 200253Z AUTO 29007KT 10SM CLR 01/M02 A2952 RMK AO2 SLP014 T00111022 53026
KHIB 200153Z AUTO 28005KT 10SM CLR 02/M02 A2949 RMK AO2 SLP003 T00171022
 
KEVM 200315Z AUTO 27007KT 10SM CLR 00/M03 A2954 RMK AO2 T00011035
KEVM 200255Z AUTO 27006KT 10SM CLR 00/M04 A2953 RMK AO2 T00011036
KEVM 200235Z AUTO 29006KT 10SM CLR 00/M04 A2951 RMK AO2 T00031036
KEVM 200215Z AUTO 28006KT 10SM CLR 02/M03 A2951 RMK AO2 T00151029
KEVM 200155Z AUTO 28007KT 10SM CLR 02/M03 A2949 RMK AO2 T00161031
 
KXVG 200315Z AUTO 27005KT 10SM CLR 00/M02 A2961 RMK AO2
KXVG 200256Z AUTO 25003KT 10SM CLR 00/M02 A2959 RMK AO2
KXVG 200236Z AUTO 24004KT 10SM CLR 01/M02 A2958 RMK AO2
KXVG 200215Z AUTO 26004KT 10SM CLR 02/M02 A2956 RMK AO2
KXVG 200155Z AUTO 26006KT 10SM CLR 02/M02 A2955 RMK AO2
 
KGPZ 200256Z AUTO 28007KT 250V310 10SM CLR 02/M02 A2958 RMK AO2 SLP033 T00171017 53032 FZRANO
KGPZ 200156Z AUTO 28008KT 10SM CLR 03/M02 A2954 RMK AO2 SLP019 T00281017
 
KTWM 200315Z AUTO 28008G14KT 10SM CLR 05/M01 A2948 RMK AO2
KTWM 200255Z AUTO 27009KT 10SM CLR 05/M01 A2947 RMK AO2
KTWM 200235Z AUTO 27009KT 10SM CLR 06/M01 A2946 RMK AO2
KTWM 200215Z AUTO 27006KT 10SM CLR 05/M01 A2945 RMK AO2
KTWM 200155Z AUTO 26008KT 10SM CLR 05/M01 A2944 RMK AO2
 
KCOQ 200315Z AUTO 27006KT 10SM CLR 02/M03 A2955 RMK AO2
KCOQ 200257Z AUTO 26006KT 03/M03 A2954 RMK AO2 PWINO
KCOQ 200220Z AUTO 26004KT 02/ A2951 RMK AO2 PWINO
KCOQ 200155Z AUTO 24005KT 10SM CLR 03/M04 A2950 RMK AO2
 
KMZH 200335Z AUTO 27006KT 10SM CLR 03/M02 A2958 RMK AO2
KMZH 200315Z AUTO 27006KT 10SM CLR 03/M02 A2957 RMK AO2
KMZH 200255Z AUTO 26006KT 10SM CLR 03/M03 A2955 RMK AO2
KMZH 200235Z AUTO 27005KT 10SM CLR 02/M02 A2954 RMK AO2
KMZH 200215Z AUTO 26005KT 10SM CLR 02/M02 A2952 RMK AO2
KMZH 200155Z AUTO 23004KT 10SM CLR 01/M02 A2952 RMK AO2
 
KDYT 200315Z AUTO 25010G14KT 10SM CLR 04/M01 A2955 RMK AO2
KDYT 200255Z AUTO 25009KT 10SM CLR 04/M01 A2954 RMK AO2
KDYT 200235Z AUTO 23008KT 10SM CLR 03/M01 A2953 RMK AO2
KDYT 200215Z AUTO 22008KT 10SM CLR 03/M01 A2951 RMK AO2
KDYT 200155Z AUTO 22010KT 10SM CLR 03/M01 A2950 RMK AO2
 
KTWM 200315Z AUTO 28008G14KT 10SM CLR 05/M01 A2948 RMK AO2
KTWM 200255Z AUTO 27009KT 10SM CLR 05/M01 A2947 RMK AO2
KTWM 200235Z AUTO 27009KT 10SM CLR 06/M01 A2946 RMK AO2
KTWM 200215Z AUTO 27006KT 10SM CLR 05/M01 A2945 RMK AO2
KTWM 200155Z AUTO 26008KT 10SM CLR 05/M01 A2944 RMK AO2
 
 
KDLH 200255Z 30011KT 10SM CLR 04/M02 A2951 RMK AO2 SLP008 T00391022 53021
KDLH 200155Z 28011KT 10SM CLR 04/M02 A2948 RMK AO2 SLP997 T00441022
 
KCDD 200326Z AUTO 27004KT 10SM OVC021 02/M01 A2952 RMK AO2
KCDD 200306Z AUTO 00000KT 10SM OVC021 02/M01 A2951 RMK AO2
KCDD 200247Z AUTO 29005G14KT 10SM OVC021 02/M01 A2950 RMK AO2
KCDD 200226Z AUTO 29003KT 10SM OVC021 02/M01 A2948 RMK AO2
KCDD 200207Z AUTO 32009G16KT 293V113 10SM OVC021 02/M01 A2947 RMK AO2
KCDD 200147Z AUTO 27003KT 10SM BKN024 02/M01 A2946 RMK AO2
 
KAIT 200315Z AUTO 24004KT 10SM CLR 02/M03 A2959 RMK AO2
KAIT 200255Z AUTO 25005KT 10SM CLR 02/M03 A2958 RMK AO2
KAIT 200235Z AUTO 27006KT 10SM CLR 02/M03 A2957 RMK AO2
KAIT 200215Z AUTO 26004KT 10SM CLR 03/M03 A2956 RMK AO2
KAIT 200155Z AUTO 25006KT 10SM CLR 03/M03 A2955 RMK AO2
 
KBRD 200253Z AUTO 27009KT 10SM CLR 03/M02 A2961 RMK AO2 SLP041 T00281017 53028
KBRD 200153Z AUTO 27008KT 10SM CLR 03/M02 A2958 RMK AO2 SLP030 T00331022
 
KPWC 200315Z AUTO 28003KT 10SM CLR M01/M03 A2966 RMK AO2
KPWC 200255Z AUTO 00000KT 10SM CLR 00/M03 A2964 RMK AO2
KPWC 200235Z AUTO 00000KT 10SM CLR 01/M03 A2963 RMK AO2
KPWC 200215Z AUTO 29003KT 10SM CLR 01/M03 A2963 RMK AO2
KPWC 200155Z AUTO 27003KT 10SM CLR 01/M03 A2962 RMK AO2
 
KCQM 200315Z AUTO 28012G19KT 10SM 02/M01 A2952 RMK AO2
KCQM 200255Z AUTO 27010G20KT 10SM 02/M01 A2951 RMK AO2
KCQM 200235Z AUTO 27011G16KT 10SM OVC021 02/M01 A2950 RMK AO2
KCQM 200215Z AUTO 25008KT 10SM 02/M01 A2949 RMK AO2
KCQM 200155Z AUTO 24008KT 10SM SCT002 SCT016 OVC025 02/M01 A2948 RMK AO2
 
KORB 200333Z AUTO 28007KT 10SM OVC018 02/M02 A2950 RMK AO2
KORB 200313Z AUTO 29008KT 10SM OVC018 02/M02 A2949 RMK AO2
KORB 200253Z AUTO 28009KT 10SM OVC018 02/M02 A2948 RMK AO2
KORB 200233Z AUTO 29007KT 10SM OVC018 02/M02 A2947 RMK AO2
KORB 200213Z AUTO 27010G18KT 220V300 10SM OVC020 02/M02 A2946 RMK AO2
KORB 200153Z AUTO 27005KT 10SM SCT022 01/M03 A2944 RMK AO2
 
KCKC 200315Z AUTO 27009G14KT 10SM OVC020 01/M03 A2941 RMK AO2
KCKC 200256Z AUTO 25008KT 10SM OVC020 01/M03 A2941 RMK AO2
KCKC 200235Z AUTO 27010G15KT 249V309 10SM OVC020 02/M03 A2939 RMK AO2 P0001
KCKC 200215Z AUTO 27008G18KT 229V289 10SM OVC018 02/M03 A2939 RMK AO2 P0001
KCKC 200155Z AUTO 28009G19KT 229V319 10SM BKN020 02/M03 A2938 RMK AO2 P0001
 
KFOZ 200333Z AUTO 26006KT 10SM OVC016 02/M01 A2958 RMK AO2
KFOZ 200313Z AUTO 27005KT 10SM OVC018 02/M01 A2956 RMK AO2
KFOZ 200253Z AUTO 26004KT 10SM OVC020 02/M01 A2954 RMK AO2
KFOZ 200233Z AUTO 25005KT 10SM SCT022 01/M02 A2953 RMK AO2
KFOZ 200213Z AUTO 25004KT 10SM CLR 01/M02 A2953 RMK AO2
KFOZ 200153Z AUTO 24005KT 10SM CLR 01/M02 A2950 RMK AO2
 
KGNA 200256Z AUTO 25006KT 04/00 A2944 RMK AO1 SLP978 T00440000 53028
KGNA 200156Z AUTO 27005KT 03/00 A2941 RMK AO1 SLP968 T00280000